createdAt,value
2022-12-26T00:03:28.420Z,36.83
2022-12-26T00:08:51.325Z,38.15
2022-12-26T00:14:15.566Z,36.15
2022-12-26T00:19:37.755Z,36.78
2022-12-26T00:24:59.633Z,33.60
2022-12-26T00:30:21.498Z,33.97
2022-12-26T00:35:43.335Z,32.15
2022-12-26T00:41:06.590Z,35.15
2022-12-26T00:46:28.608Z,30.08
2022-12-26T00:51:50.507Z,37.20
2022-12-26T00:57:12.448Z,33.88
2022-12-26T01:02:34.456Z,34.83
2022-12-26T01:08:20.310Z,33.13
2022-12-26T01:13:38.613Z,35.60
2022-12-26T01:19:00.647Z,34.28
2022-12-26T01:24:22.481Z,31.60
2022-12-26T01:29:44.321Z,32.13
2022-12-26T01:35:06.522Z,38.67
2022-12-26T01:40:28.398Z,38.85
2022-12-26T01:45:51.203Z,39.80
2022-12-26T01:51:14.916Z,37.22
2022-12-26T01:56:40.266Z,33.35
2022-12-26T02:02:03.740Z,37.88
2022-12-26T02:07:26.553Z,37.75
2022-12-26T02:12:49.821Z,36.05
2022-12-26T02:18:11.672Z,36.53
2022-12-26T02:23:48.414Z,40.53
2022-12-26T02:29:34.765Z,39.47
2022-12-26T02:40:25.981Z,36.97
2022-12-26T02:46:05.456Z,39.38
2022-12-26T02:51:49.054Z,39.10
2022-12-26T02:57:18.479Z,33.20
2022-12-26T03:02:52.533Z,36.85
2022-12-26T03:08:21.730Z,41.08
2022-12-26T03:13:45.349Z,41.53
2022-12-26T03:19:10.755Z,36.80
2022-12-26T03:24:33.659Z,38.03
2022-12-26T03:29:55.551Z,36.65
2022-12-26T03:35:17.632Z,32.95
2022-12-26T03:41:14.376Z,35.22
2022-12-26T03:46:58.048Z,37.92
2022-12-26T03:52:57.291Z,39.95
2022-12-26T03:58:32.529Z,35.13
2022-12-26T04:03:56.395Z,33.33
2022-12-26T04:09:31.377Z,34.53
2022-12-26T04:15:00.146Z,31.25
2022-12-26T04:20:35.328Z,28.65
2022-12-26T04:26:10.932Z,33.92
2022-12-26T04:31:47.466Z,24.70
2022-12-26T04:37:18.461Z,29.90
2022-12-26T04:42:44.083Z,30.00
2022-12-26T04:48:06.199Z,28.73
2022-12-26T04:53:28.044Z,31.20
2022-12-26T04:58:50.029Z,27.17
2022-12-26T05:04:17.335Z,26.40
2022-12-26T05:09:39.252Z,25.48
2022-12-26T05:15:01.270Z,28.48
2022-12-26T05:20:23.149Z,28.10
2022-12-26T05:25:46.049Z,22.85
2022-12-26T05:31:13.917Z,24.70
2022-12-26T05:36:56.899Z,21.42
2022-12-26T05:42:18.767Z,20.98
2022-12-26T05:47:40.702Z,22.42
2022-12-26T05:53:02.585Z,22.00
2022-12-26T05:58:24.441Z,22.83
2022-12-26T06:03:49.173Z,19.80
2022-12-26T06:09:11.122Z,23.27
2022-12-26T06:14:33.043Z,15.65
2022-12-26T06:19:55.149Z,15.15
2022-12-26T06:25:17.123Z,17.48
2022-12-26T06:30:38.933Z,16.98
2022-12-26T06:36:09.522Z,16.90
2022-12-26T06:41:31.660Z,15.95
2022-12-26T06:46:53.529Z,16.83
2022-12-26T06:52:15.476Z,15.15
2022-12-26T06:57:37.347Z,14.85
2022-12-26T07:02:59.306Z,15.10
2022-12-26T07:08:21.214Z,16.30
2022-12-26T07:13:43.722Z,16.85
2022-12-26T07:19:06.444Z,15.55
2022-12-26T07:24:28.335Z,15.57
2022-12-26T07:29:50.176Z,14.85
2022-12-26T07:35:12.029Z,13.27
2022-12-26T07:40:33.913Z,13.63
2022-12-26T07:45:57.943Z,15.35
2022-12-26T07:51:19.883Z,15.10
2022-12-26T07:56:42.101Z,13.00
2022-12-26T08:02:04.150Z,13.05
2022-12-26T08:07:26.252Z,12.85
2022-12-26T08:12:48.204Z,14.07
2022-12-26T08:18:10.122Z,13.25
2022-12-26T08:23:32.132Z,12.75
2022-12-26T08:28:55.687Z,14.68
2022-12-26T08:34:17.706Z,16.13
2022-12-26T08:39:39.689Z,14.63
2022-12-26T08:45:01.606Z,14.25
2022-12-26T08:50:23.552Z,15.48
2022-12-26T08:55:45.398Z,14.77
2022-12-26T09:01:13.960Z,15.77
2022-12-26T09:06:38.299Z,16.27
2022-12-26T09:12:00.276Z,15.02
2022-12-26T09:17:22.189Z,15.63
2022-12-26T09:22:44.323Z,13.18
2022-12-26T09:28:06.268Z,17.10
2022-12-26T09:33:29.255Z,19.13
2022-12-26T09:38:52.212Z,21.02
2022-12-26T09:44:48.314Z,17.35
2022-12-26T09:50:10.102Z,17.52
2022-12-26T09:55:50.387Z,19.42
2022-12-26T10:01:18.922Z,16.45
2022-12-26T10:06:48.201Z,17.13
2022-12-26T10:12:37.631Z,17.88
2022-12-26T10:18:26.547Z,20.63
2022-12-26T10:23:58.318Z,20.92
2022-12-26T10:29:23.576Z,19.42
2022-12-26T10:34:48.216Z,20.45
2022-12-26T10:40:20.853Z,20.25
2022-12-26T10:45:58.468Z,20.95
2022-12-26T10:51:20.513Z,16.30
2022-12-26T10:56:42.784Z,22.65
2022-12-26T11:02:22.094Z,17.63
2022-12-26T11:07:52.102Z,17.08
2022-12-26T11:13:21.908Z,20.10
2022-12-26T11:18:51.350Z,20.35
2022-12-26T11:24:19.210Z,18.23
2022-12-26T11:29:41.103Z,21.00
2022-12-26T11:35:03.679Z,20.55
2022-12-26T11:40:36.825Z,22.95
2022-12-26T11:45:59.057Z,21.73
2022-12-26T11:51:42.140Z,18.40
2022-12-26T11:57:16.502Z,22.15
2022-12-26T12:02:40.810Z,19.38
2022-12-26T12:08:15.591Z,19.77
2022-12-26T12:14:12.832Z,18.52
2022-12-26T12:19:58.713Z,21.23
2022-12-26T12:25:44.966Z,19.13
2022-12-26T12:31:38.298Z,16.27
2022-12-26T12:37:06.049Z,16.95
2022-12-26T12:43:01.636Z,14.77
2022-12-26T12:48:33.655Z,13.80
2022-12-26T12:54:14.859Z,14.55
2022-12-26T13:00:10.741Z,15.35
2022-12-26T13:05:52.836Z,12.80
2022-12-26T13:11:35.578Z,16.00
2022-12-26T13:17:03.637Z,14.25
2022-12-26T13:22:30.714Z,13.07
2022-12-26T13:27:56.822Z,13.48
2022-12-26T13:33:19.107Z,15.48
2022-12-26T13:38:56.340Z,14.52
2022-12-26T13:44:18.179Z,11.57
2022-12-26T13:49:41.721Z,14.48
2022-12-26T13:55:06.645Z,14.98
2022-12-26T14:00:45.861Z,13.60
2022-12-26T14:06:38.748Z,14.02
2022-12-26T14:12:43.010Z,12.80
2022-12-26T14:18:29.112Z,13.85
2022-12-26T14:24:12.275Z,12.18
2022-12-26T14:29:58.898Z,13.60
2022-12-26T14:35:35.902Z,12.77
2022-12-26T14:41:05.725Z,12.13
2022-12-26T14:46:30.762Z,12.95
2022-12-26T14:51:54.134Z,15.75
2022-12-26T14:57:45.533Z,12.30
2022-12-26T15:03:24.067Z,12.88
2022-12-26T15:09:11.713Z,12.68
2022-12-26T15:15:04.607Z,11.68
2022-12-26T15:20:54.788Z,12.80
2022-12-26T15:26:48.109Z,14.63
2022-12-26T15:32:13.431Z,13.07
2022-12-26T15:38:11.484Z,12.35
2022-12-26T15:44:08.412Z,13.93
2022-12-26T15:50:03.563Z,13.05
2022-12-26T15:55:37.528Z,14.90
2022-12-26T16:00:59.800Z,14.43
2022-12-26T16:06:40.236Z,16.17
2022-12-26T16:12:02.431Z,14.65
2022-12-26T16:17:24.457Z,15.95
2022-12-26T16:22:46.457Z,17.10
2022-12-26T16:28:12.250Z,16.20
2022-12-26T16:33:42.543Z,15.40
2022-12-26T16:39:09.185Z,16.15
2022-12-26T16:49:57.149Z,17.55
2022-12-26T16:55:31.158Z,14.75
2022-12-26T17:01:11.870Z,15.75
2022-12-26T17:06:38.689Z,15.00
2022-12-26T17:12:04.218Z,21.55
2022-12-26T17:17:29.103Z,14.27
2022-12-26T17:22:57.448Z,13.00
2022-12-26T17:28:19.231Z,14.85
2022-12-26T17:33:47.551Z,13.70
2022-12-26T17:39:21.398Z,12.75
2022-12-26T17:44:45.651Z,14.68
2022-12-26T17:50:07.671Z,12.57
2022-12-26T17:55:29.615Z,14.05
2022-12-26T18:00:52.057Z,12.45
2022-12-26T18:06:15.780Z,11.60
2022-12-26T18:11:37.641Z,11.60
2022-12-26T18:17:01.078Z,12.23
2022-12-26T18:22:22.941Z,14.50
2022-12-26T18:27:45.198Z,13.02
2022-12-26T18:33:12.367Z,15.98
2022-12-26T18:38:34.254Z,14.18
2022-12-26T18:43:56.305Z,14.98
2022-12-26T18:49:18.228Z,15.13
2022-12-26T18:54:40.606Z,15.45
2022-12-26T19:00:03.825Z,17.77
2022-12-26T19:05:28.694Z,13.95
2022-12-26T19:10:50.720Z,16.42
2022-12-26T19:16:12.761Z,15.98
2022-12-26T19:21:35.566Z,15.23
2022-12-26T19:26:57.486Z,11.82
2022-12-26T19:32:19.415Z,12.52
2022-12-26T19:37:41.448Z,13.40
2022-12-26T19:43:03.784Z,11.82
2022-12-26T19:48:25.819Z,13.45
2022-12-26T19:53:48.421Z,12.15
2022-12-26T19:59:10.267Z,12.60
2022-12-26T20:04:32.190Z,14.25
2022-12-26T20:09:54.119Z,12.90
2022-12-26T20:15:16.060Z,14.35
2022-12-26T20:20:37.909Z,11.70
2022-12-26T20:26:07.321Z,12.00
2022-12-26T20:31:31.602Z,12.02
2022-12-26T20:36:53.550Z,11.52
2022-12-26T20:42:15.407Z,11.07
2022-12-26T20:47:37.294Z,11.07
2022-12-26T20:52:59.196Z,11.32
2022-12-26T20:58:25.333Z,12.45
2022-12-26T21:03:48.279Z,11.82
2022-12-26T21:09:10.167Z,12.32
2022-12-26T21:14:32.031Z,11.48
2022-12-26T21:19:53.957Z,12.18
2022-12-26T21:25:15.802Z,11.05
2022-12-26T21:30:37.744Z,10.70
2022-12-26T21:35:59.659Z,11.00
2022-12-26T21:41:21.739Z,10.70
2022-12-26T21:46:43.671Z,12.65
2022-12-26T21:52:08.043Z,12.52
2022-12-26T21:57:29.944Z,11.05
2022-12-26T22:02:52.058Z,10.77
2022-12-26T22:08:15.020Z,11.20
2022-12-26T22:13:42.288Z,10.20
2022-12-26T22:19:04.421Z,12.00
2022-12-26T22:24:26.358Z,11.30
2022-12-26T22:29:48.261Z,11.27
2022-12-26T22:35:16.526Z,10.55
2022-12-26T22:40:40.960Z,10.68
2022-12-26T22:46:02.899Z,9.38
2022-12-26T22:51:26.619Z,11.07
2022-12-26T22:56:48.766Z,9.73
2022-12-26T23:02:10.765Z,12.55
2022-12-26T23:07:33.298Z,10.60
2022-12-26T23:12:56.135Z,13.10
2022-12-26T23:18:40.862Z,11.70
2022-12-26T23:24:02.770Z,12.20
2022-12-26T23:29:24.661Z,13.45
2022-12-26T23:34:46.571Z,12.05
2022-12-26T23:40:11.283Z,12.43
2022-12-26T23:45:33.120Z,12.68
2022-12-26T23:51:02.999Z,12.35
2022-12-26T23:56:24.897Z,13.30
